Wednesday, April 16, 2014, 8:48 PM EDT

KDOV, Dover Air Force Base

Location: Dover, DE, United States Lat: 39.133
Local Time: 8:48 PM EDT ( 0:48 GMT) Lon: -75.467
Time Zone: US/Eastern Elev: 29 ft

Show me the last for .
Show Decoded

2014-04-16 19:58 METAR KDOV 162358Z AUTO 35006KT 10SM CLR 04/M04 A3043 =
2014-04-16 18:58 METAR KDOV 162258Z AUTO 01007KT 350V140 10SM CLR 08/M06 A3041 =
2014-04-16 17:58 METAR KDOV 162158Z AUTO 35012KT 10SM CLR 09/M07 A3039 RMK AO2 SLP294 T00861067 =
2014-04-16 16:58 METAR KDOV 162058Z AUTO 36014G20KT 10SM CLR 09/M06 A3038 =
2014-04-16 16:01 METAR KDOV 162001Z AUTO 32015KT 10SM CLR 09/M06 A3038 RMK AO2 WSHFT 1959 =
2014-04-16 15:58 METAR KDOV 161958Z AUTO 36014KT 340V110 10SM CLR 09/M06 A3038 RMK AO2 SLP291
                 T00861063 =
2014-04-16 15:17 METAR KDOV 161917Z AUTO 01016G24KT 340V110 10SM CLR 09/M06 A3038 RMK AO2 WSHFT
                 07 =
2014-04-16 14:58 METAR KDOV 161858Z AUTO 34017G21KT 290V010 10SM CLR 08/M06 A3039 RMK AO2 SLP294
                 T00811061 =
2014-04-16 14:36 METAR KDOV 161836Z AUTO 36012G21KT 10SM CLR 08/M06 A3039 RMK AO2 WSHFT 25 =
2014-04-16 14:23 METAR KDOV 161823Z AUTO 32014G21KT 10SM CLR 08/M05 A3039 RMK AO2 WSHFT 11 =
2014-04-16 13:58 METAR KDOV 161758Z AUTO 34014G18KT 10SM CLR 07/M06 A3040 RMK AO2 SLP298
                 T00731055 10073 20004 55002 =
2014-04-16 13:24 METAR KDOV 161724Z AUTO 34012KT 10SM CLR 07/M05 A3039 RMK AO2 WSHFT 19 =
2014-04-16 13:19 METAR KDOV 161719Z AUTO 30013G22KT 10SM CLR 07/M05 A3039 RMK AO2 WSHFT 08 =
2014-04-16 12:58 METAR KDOV 161658Z AUTO 33011G22KT 10SM CLR 06/M06 A3039 RMK AO2 SLP294
                 T00611059 =
2014-04-16 12:41 METAR KDOV 161641Z AUTO 32012G18KT 10SM CLR 06/M06 A3039 RMK AO2 WSHFT 34 =
2014-04-16 12:33 METAR KDOV 161633Z AUTO 35012G18KT 310V060 10SM CLR 06/M06 A3039 RMK AO2 WSHFT
                 22 =
2014-04-16 12:19 METAR KDOV 161619Z AUTO 31012G21KT 10SM CLR 06/M06 A3039 RMK AO2 WSHFT 14 =
2014-04-16 11:58 METAR KDOV 161558Z AUTO 33015G20KT 10SM CLR 05/M06 A3039 =
2014-04-16 10:58 METAR KDOV 161458Z AUTO 32016G22KT 10SM CLR 04/M07 A3040 RMK AO2 SLP298
                 T00381072 52030 =
2014-04-16 09:58 METAR KDOV 161358Z AUTO 32017G22KT 10SM CLR 02/M09 A3037 RMK AO2 PK WND 34026/14
                 SLP288 T00231085 =
2014-04-16 08:58 METAR KDOV 161258Z AUTO 32018G23KT 10SM CLR 01/M09 A3033 =
2014-04-16 07:58 METAR KDOV 161158Z AUTO 33014G21KT 10SM CLR 00/M09 A3031 RMK AO2 PK WND 32029/47
                 SLP267 70097 T00031087 10026 21008 52049 =
2014-04-16 06:58 METAR KDOV 161058Z AUTO 33011KT 10SM CLR M01/M07 A3025 =
2014-04-16 05:58 METAR KDOV 160958Z AUTO 33014KT 10SM CLR 00/M07 A3021 =
2014-04-16 04:58 METAR KDOV 160858Z AUTO 32014KT 10SM CLR 01/M07 A3016 =
2014-04-16 03:58 METAR KDOV 160758Z AUTO 31014G21KT 10SM CLR 01/M05 A3012 =
2014-04-16 02:58 METAR KDOV 160658Z AUTO 32016G25KT 10SM CLR 02/M03 A3005 RMK AO2 PK WND 30029/18
                 SLP179 T00201034 =
2014-04-16 01:58 METAR KDOV 160558Z AUTO 31014G22KT 10SM SCT160 03/M01 A3003 RMK AO2 SLP172 P0001
                 60063 T00251006 10066 20013 52025 =
2014-04-16 00:58 METAR KDOV 160458Z AUTO 31008KT 10SM BKN033 02/02 A3001 =
2014-04-16 00:53 METAR KDOV 160453Z AUTO 31007KT 10SM SCT032 01/01 A3000 RMK AO2 =
2014-04-16 00:13 METAR KDOV 160413Z AUTO 32010G18KT 9SM RA SCT010 01/01 A2997 RMK AO2 =
2014-04-16 00:03 METAR KDOV 160403Z AUTO 31015G21KT 6SM RA BR OVC011 01/01 A2997 RMK AO2
                 RAE0357RAB0357 CIG 007 RWY19 =
2014-04-15 23:58 METAR KDOV 160358Z AUTO 31017G21KT 6SM RA BR OVC010 01/01 A2997 =
2014-04-15 23:56 METAR KDOV 160356Z AUTO 30016G21KT 6SM RA BR OVC010 01/01 A2997 RMK AO2
                 RAB0328UPE0328SNB0315E0327RAB0258E0305 =
2014-04-15 23:52 METAR KDOV 160352Z AUTO 31015G20KT 7SM FZRA OVC010 01/01 A2996 RMK AO2
                 RAB0328UPE0328SNB0315E0327RAB0258E0305 =
2014-04-15 23:27 METAR KDOV 160327Z AUTO 31012KT 9SM FZRA OVC009 01/01 A2997 RMK AO2
                 SNB0315E0327RAB0258E0305 CIG 009V011 =
2014-04-15 23:23 METAR KDOV 160323Z AUTO 31012KT 8SM -SN OVC010 01/01 A2997 RMK AO2
                 UPE0315SNB0315RAB0258E0305 =
2014-04-15 22:58 METAR KDOV 160258Z AUTO 31015G20KT 6SM RA BR FEW009 OVC013 02/02 A2995 RMK AO2
                 PK WND 31027/05 UPB0247RAE0247 CIG 007 RWY19 SLP145 P0018 60040 T00200020 52068
                 =
2014-04-15 22:53 METAR KDOV 160253Z AUTO 31012G20KT 6SM UP BR SCT009 OVC014 02/02 A2995 RMK AO2
                 UPB0247RAE0247 CIG 014V020 CIG 008 RWY19 =
2014-04-15 22:43 METAR KDOV 160243Z AUTO 31014G24KT 6SM -RA BR SCT009 BKN017 OVC024 03/03 A2995
                 RMK AO2 CIG 009V017 PRESRR =
2014-04-15 22:33 METAR KDOV 160233Z AUTO 31018G23KT 8SM +RA BKN009 BKN016 OVC055 04/04 A2993 RMK
                 AO2 CIG 009V019 =
2014-04-15 22:28 METAR KDOV 160228Z AUTO 31015G20KT 9SM RA BKN010 BKN023 BKN055 04/04 A2993 RMK
                 AO2 CIG 010V019 =
2014-04-15 22:23 METAR KDOV 160223Z AUTO 32015G24KT 10SM RA SCT011 BKN019 BKN024 OVC060 04/04
                 A2992 RMK AO2 CIG 011V019 PRESRR =
2014-04-15 22:13 METAR KDOV 160213Z AUTO 31018G24KT 10SM RA BKN011 BKN021 OVC070 04/04 A2986 RMK
                 AO2 CIG 011V070 BKN011 V SCT PRESFR =
2014-04-15 22:03 METAR KDOV 160203Z AUTO 31018G24KT 9SM R01/5500FT +RA SCT013 SCT022 OVC065 05/05
                 A2989 RMK AO2 CIG 015 RWY19 =
2014-04-15 21:58 METAR KDOV 160158Z AUTO 32016G24KT 10SM RA SCT013 SCT020 OVC070 05/05 A2989 =
2014-04-15 21:53 METAR KDOV 160153Z AUTO 32014G23KT 9SM R01/5500FT RA SCT013 SCT020 OVC075 05/05
                 A2984 RMK AO2 PRESFR =
2014-04-15 21:43 METAR KDOV 160143Z AUTO 31015G25KT 10SM RA SCT013 OVC070 05/05 A2989 RMK AO2
                 PRESRR =
2014-04-15 21:33 METAR KDOV 160133Z AUTO 32018G25KT 10SM -RA BKN013 BKN019 OVC070 05/05 A2986 RMK
                 AO2 CIG 012V019 BKN013 V SCT =
2014-04-15 21:28 METAR KDOV 160128Z AUTO 32018G23KT 8SM R01/5500FT RA SCT013 BKN019 OVC065 05/05
                 A2986 RMK AO2 CIG 012V019 CIG 013 RWY19 PRESFR =
2014-04-15 21:23 METAR KDOV 160123Z AUTO 31015G20KT 8SM R01/5500FT RA BKN012 BKN020 OVC060 05/05
                 A2989 RMK AO2 CIG 012V055 BKN012 V SCT PRESRR =
2014-04-15 21:18 METAR KDOV 160118Z AUTO 30014G22KT 9SM R01/5500FT -RA SCT012 BKN019 OVC055 06/06
                 A2985 RMK AO2 CIG 019V060 =
2014-04-15 20:58 METAR KDOV 160058Z AUTO 31022G29KT 5SM R01/5000FT RA BR FEW010 SCT015 OVC050
                 06/06 A2985 RMK AO2 PK WND 29030/35 PRESRR SLP111 P0011 =

Support USWX by starting your Amazon purchase here.